Time;durP1;ratioP1;P1;durP2;ratioP2;P2;SDS_P1;SDS_P2;PMS_P1;PMS_P2;Temp;Humidity;BMP_temperature;BMP_pressure;BME280_temperature;BME280_humidity;BME280_pressure;Samples;Min_cycle;Max_cycle;Signal;HPM_P1;HPM_P2
2023/03/28 00:00:17;;;;;;;0.60;0.60;;;;;;;1.40;74.66;97643.94;29373;212;63005;-57
2023/03/28 00:00:49;;;;;;;0.60;0.60;;;;;;;1.38;74.66;97646.03;29373;236;63009;-57
2023/03/28 00:01:20;;;;;;;0.60;0.60;;;;;;;1.41;74.67;97653.59;29373;261;63005;-58
2023/03/28 00:01:51;;;;;;;0.60;0.60;;;;;;;1.38;74.34;97644.19;29373;222;63009;-57
2023/03/28 00:02:26;;;;;;;0.60;0.60;;;;;;;1.39;74.33;97650.34;29373;326;63005;-59
2023/03/28 00:02:58;;;;;;;0.80;0.80;;;;;;;1.35;74.59;97649.97;29373;271;63009;-57
2023/03/28 00:03:34;;;;;;;0.60;0.60;;;;;;;1.31;74.51;97649.56;29373;221;63005;-57
2023/03/28 00:04:05;;;;;;;0.60;0.60;;;;;;;1.33;74.03;97647.50;29373;279;63009;-58
2023/03/28 00:04:40;;;;;;;0.60;0.60;;;;;;;1.32;74.00;97651.22;29373;246;63004;-58
2023/03/28 00:05:12;;;;;;;0.60;0.60;;;;;;;1.27;74.70;97653.69;29371;207;64013;-58
2023/03/28 00:05:47;;;;;;;0.60;0.60;;;;;;;1.25;74.76;97647.75;29373;215;63004;-58
2023/03/28 00:06:20;;;;;;;0.60;0.60;;;;;;;1.22;74.82;97652.69;29371;212;64013;-60
2023/03/28 00:06:52;;;;;;;0.60;0.60;;;;;;;1.24;74.78;97648.78;29371;248;64008;-62
2023/03/28 00:07:23;;;;;;;0.60;0.60;;;;;;;1.20;74.58;97647.56;29373;234;63009;-58
2023/03/28 00:07:55;;;;;;;0.60;0.60;;;;;;;1.19;74.90;97647.78;29373;269;63005;-57
2023/03/28 00:08:27;;;;;;;0.60;0.60;;;;;;;1.13;75.00;97640.63;29373;293;63009;-57
2023/03/28 00:08:58;;;;;;;0.60;0.60;;;;;;;1.18;74.64;97654.97;29373;333;63005;-59
2023/03/28 00:09:30;;;;;;;0.60;0.60;;;;;;;1.18;74.73;97644.28;29373;298;63009;-57
2023/03/28 00:10:02;;;;;;;0.60;0.60;;;;;;;1.14;74.80;97648.41;29373;199;63005;-58
2023/03/28 00:10:34;;;;;;;0.60;0.60;;;;;;;1.10;74.74;97651.72;29371;199;64013;-59
2023/03/28 00:11:20;;;;;;;0.60;0.60;;;;;;;1.07;75.02;97658.31;29373;198;63013;-56
2023/03/28 00:11:51;;;;;;;0.60;0.60;;;;;;;1.14;74.81;97659.13;29373;255;63009;-59
2023/03/28 00:12:24;;;;;;;0.60;0.60;;;;;;;1.18;74.57;97659.50;29373;228;63004;-57
2023/03/28 00:12:55;;;;;;;0.62;0.62;;;;;;;1.17;74.66;97653.34;29373;207;63008;-57
2023/03/28 00:13:28;;;;;;;0.60;0.60;;;;;;;1.15;74.49;97658.09;29371;273;64008;-57
2023/03/28 00:14:00;;;;;;;0.60;0.60;;;;;;;1.15;74.56;97657.25;29373;218;63008;-58
2023/03/28 00:14:34;;;;;;;0.60;0.60;;;;;;;1.15;74.55;97651.91;29373;271;63009;-58
2023/03/28 00:16:15;;;;;;;0.60;0.60;;;;;;;1.08;75.12;97670.66;88174;223;64004;-56
2023/03/28 00:16:46;;;;;;;0.60;0.60;;;;;;;1.10;75.13;97667.78;29394;258;64009;-57
2023/03/28 00:17:17;;;;;;;0.68;0.68;;;;;;;1.08;74.93;97665.31;29373;234;63005;-65
2023/03/28 00:17:51;;;;;;;0.60;0.60;;;;;;;1.11;75.39;97670.22;29373;258;63009;-56
2023/03/28 00:18:22;;;;;;;0.55;0.55;;;;;;;1.12;74.11;97661.19;29373;216;63005;-58
2023/03/28 00:18:53;;;;;;;0.60;0.60;;;;;;;1.15;73.90;97663.44;29371;214;64013;-57
2023/03/28 00:19:31;;;;;;;0.60;0.60;;;;;;;1.14;73.97;97664.47;29373;257;63005;-56
2023/03/28 00:20:04;;;;;;;0.60;0.60;;;;;;;1.12;74.41;97665.69;29373;211;63009;-63
2023/03/28 00:20:42;;;;;;;0.70;0.70;;;;;;;1.17;74.34;97665.88;29373;204;63004;-56
2023/03/28 00:21:28;;;;;;;0.60;0.60;;;;;;;1.13;74.27;97662.81;29373;198;63004;-57
2023/03/28 00:22:01;;;;;;;1.65;1.50;;;;;;;1.10;74.53;97665.91;29373;226;63008;-63
2023/03/28 00:22:32;;;;;;;0.60;0.60;;;;;;;1.11;74.78;97664.06;29372;245;64013;-55
2023/03/28 00:23:04;;;;;;;0.60;0.60;;;;;;;1.10;73.96;97663.25;29373;276;63004;-57
2023/03/28 00:23:36;;;;;;;0.60;0.60;;;;;;;1.06;74.34;97672.72;29373;213;63009;-64
2023/03/28 00:24:12;;;;;;;0.60;0.60;;;;;;;1.03;74.88;97665.16;29373;228;63005;-58
2023/03/28 00:24:43;;;;;;;0.60;0.60;;;;;;;1.00;74.95;97668.25;29373;220;63009;-57
2023/03/28 00:25:15;;;;;;;0.60;0.60;;;;;;;1.04;74.57;97664.09;29371;290;64009;-63
2023/03/28 00:25:47;;;;;;;0.60;0.60;;;;;;;1.02;74.53;97671.53;29373;207;63019;-57
2023/03/28 00:26:20;;;;;;;0.60;0.60;;;;;;;1.03;75.07;97670.50;29373;225;63005;-57
2023/03/28 00:26:53;;;;;;;0.60;0.60;;;;;;;1.07;74.65;97669.00;29373;199;63009;-55
2023/03/28 00:27:28;;;;;;;0.60;0.60;;;;;;;1.11;74.05;97669.41;29373;196;63009;-58
2023/03/28 00:27:59;;;;;;;0.60;0.60;;;;;;;1.12;74.00;97666.53;29373;223;63009;-57
2023/03/28 00:28:30;;;;;;;0.60;0.60;;;;;;;1.07;73.68;97661.00;29373;216;63004;-57
2023/03/28 00:29:10;;;;;;;0.60;0.60;;;;;;;1.07;74.19;97674.34;29371;224;64013;-58
2023/03/28 00:29:41;;;;;;;0.60;0.60;;;;;;;1.07;73.80;97669.00;29371;215;64009;-57
2023/03/28 00:30:13;;;;;;;0.60;0.60;;;;;;;1.08;73.99;97669.84;29373;206;63008;-57
2023/03/28 00:30:45;;;;;;;0.50;0.50;;;;;;;1.11;74.22;97670.22;29373;208;63005;-62
2023/03/28 00:31:16;;;;;;;0.50;0.50;;;;;;;1.11;73.73;97672.91;29373;202;63009;-57
2023/03/28 00:31:49;;;;;;;0.60;0.60;;;;;;;1.10;73.93;97668.59;29373;223;63005;-60
2023/03/28 00:32:20;;;;;;;0.60;0.60;;;;;;;1.09;73.86;97672.28;29373;234;63013;-63
2023/03/28 00:32:56;;;;;;;1.00;1.00;;;;;;;1.15;73.76;97671.44;29373;221;63005;-57
2023/03/28 00:33:27;;;;;;;0.60;0.60;;;;;;;1.15;73.76;97671.44;29373;235;63009;-57
2023/03/28 00:34:00;;;;;;;0.60;0.60;;;;;;;1.16;73.47;97678.44;29371;214;64009;-64
2023/03/28 00:34:31;;;;;;;0.60;0.60;;;;;;;1.18;73.37;97673.69;29373;227;63009;-63
2023/03/28 00:35:04;;;;;;;0.60;0.60;;;;;;;1.15;73.50;97670.63;29371;207;64009;-64
2023/03/28 00:35:35;;;;;;;0.60;0.60;;;;;;;1.13;73.67;97667.34;29373;199;63009;-66
2023/03/28 00:36:09;;;;;;;0.60;0.60;;;;;;;1.12;73.97;97674.53;29373;226;63004;-63
2023/03/28 00:36:43;;;;;;;0.60;0.60;;;;;;;1.14;73.88;97677.00;29373;258;63009;-61
2023/03/28 00:37:16;;;;;;;0.60;0.60;;;;;;;1.09;74.06;97674.16;29373;210;63004;-63
2023/03/28 00:37:51;;;;;;;0.60;0.60;;;;;;;1.05;74.19;97671.06;29373;220;63012;-65
2023/03/28 00:38:22;;;;;;;0.60;0.60;;;;;;;1.02;74.29;97682.22;29373;202;63005;-63
2023/03/28 00:38:56;;;;;;;0.60;0.60;;;;;;;1.03;74.13;97677.69;29373;203;63009;-67
2023/03/28 00:39:31;;;;;;;0.60;0.60;;;;;;;1.02;74.07;97679.56;29371;215;64009;-65
2023/03/28 00:40:06;;;;;;;0.60;0.60;;;;;;;1.00;74.37;97681.63;29373;259;63009;-58
2023/03/28 00:40:37;;;;;;;0.60;0.60;;;;;;;1.02;74.38;97684.91;29373;213;63009;-65
2023/03/28 00:41:09;;;;;;;0.60;0.60;;;;;;;1.02;74.47;97682.22;29373;260;63009;-67
2023/03/28 00:41:42;;;;;;;0.60;0.60;;;;;;;1.00;74.79;97684.28;29373;252;63018;-65
2023/03/28 00:42:16;;;;;;;0.60;0.60;;;;;;;0.97;74.53;97685.53;29373;222;63009;-63
2023/03/28 00:42:47;;;;;;;0.60;0.60;;;;;;;0.95;74.95;97686.78;29373;209;63004;-63
2023/03/28 00:43:36;;;;;;;0.60;0.60;;;;;;;0.98;75.22;97691.69;29372;247;63009;-60
2023/03/28 00:44:41;;;;;;;0.60;0.60;;;;;;;1.00;74.84;97686.97;29373;260;63004;-65
2023/03/28 00:45:13;;;;;;;0.60;0.60;;;;;;;0.96;74.54;97688.41;29371;233;64013;-57
2023/03/28 00:45:44;;;;;;;0.60;0.60;;;;;;;0.92;74.88;97682.66;29373;264;63005;-58
2023/03/28 00:46:41;;;;;;;0.60;0.60;;;;;;;1.14;73.24;97677.00;29373;219;63009;-60
2023/03/28 00:47:56;;;;;;;0.60;0.60;;;;;;;1.23;72.75;97683.75;29373;241;63005;-64
2023/03/28 00:48:28;;;;;;;0.60;0.60;;;;;;;1.21;73.05;97683.13;29373;230;63023;-64
2023/03/28 00:49:09;;;;;;;0.60;0.60;;;;;;;1.15;73.33;97686.66;29373;222;63005;-61
2023/03/28 00:49:43;;;;;;;0.60;0.60;;;;;;;1.09;73.29;97685.66;29373;205;63009;-62
2023/03/28 00:50:22;;;;;;;0.60;0.60;;;;;;;1.09;73.67;97682.16;29371;218;64010;-56
2023/03/28 00:51:02;;;;;;;0.60;0.60;;;;;;;1.07;73.27;97684.22;29373;233;63009;-66
2023/03/28 00:51:38;;;;;;;0.60;0.60;;;;;;;1.08;74.06;97693.88;29373;230;63008;-57
2023/03/28 00:52:14;;;;;;;0.60;0.60;;;;;;;1.10;73.74;97684.63;29373;220;63021;-61
2023/03/28 00:53:07;;;;;;;0.60;0.60;;;;;;;1.09;72.91;97683.00;29373;227;63004;-57
2023/03/28 00:53:41;;;;;;;0.60;0.60;;;;;;;1.03;73.71;97681.19;29373;197;63009;-62
2023/03/28 00:54:17;;;;;;;0.60;0.60;;;;;;;0.99;73.97;97696.00;29373;197;63005;-62
2023/03/28 00:54:51;;;;;;;0.60;0.60;;;;;;;0.97;74.00;97692.72;29373;207;63009;-65
2023/03/28 00:55:31;;;;;;;0.60;0.60;;;;;;;0.92;73.68;97689.88;29371;202;64001;-66
2023/03/28 00:56:07;;;;;;;0.60;0.60;;;;;;;0.93;74.83;97694.19;29355;302;125009;-61
2023/03/28 00:56:45;;;;;;;0.60;0.60;;;;;;;0.93;74.61;97689.66;29395;245;63003;-67
2023/03/28 00:57:16;;;;;;;0.60;0.60;;;;;;;0.93;74.55;97686.97;29373;198;63009;-62
2023/03/28 00:57:49;;;;;;;0.60;0.60;;;;;;;0.96;74.56;97693.75;29373;218;63004;-61
2023/03/28 00:58:25;;;;;;;0.60;0.60;;;;;;;0.98;74.97;97691.69;29373;210;63009;-57
2023/03/28 00:59:01;;;;;;;0.60;0.60;;;;;;;0.97;74.40;97690.06;29373;199;63004;-57
2023/03/28 00:59:35;;;;;;;0.60;0.60;;;;;;;0.98;74.38;97686.34;29373;291;63008;-57
2023/03/28 01:00:11;;;;;;;0.60;0.60;;;;;;;0.95;74.42;97692.13;29372;241;64005;-63
2023/03/28 01:00:47;;;;;;;0.60;0.60;;;;;;;0.94;74.80;97690.47;29371;249;64014;-57
2023/03/28 01:01:20;;;;;;;0.90;0.90;;;;;;;0.94;74.65;97695.81;29373;240;63005;-58
2023/03/28 01:01:54;;;;;;;0.60;0.60;;;;;;;0.93;74.86;97694.19;29373;200;63009;-57
2023/03/28 01:02:29;;;;;;;0.60;0.60;;;;;;;0.93;74.38;97689.66;29373;254;63005;-57
2023/03/28 01:03:05;;;;;;;0.60;0.60;;;;;;;0.98;74.11;97692.50;29373;210;63009;-63
2023/03/28 01:03:40;;;;;;;0.60;0.60;;;;;;;0.98;74.04;97686.34;29373;213;63005;-57
2023/03/28 01:04:19;;;;;;;0.60;0.60;;;;;;;1.03;73.56;97689.22;29373;197;63025;-57
2023/03/28 01:04:58;;;;;;;0.60;0.60;;;;;;;0.99;74.07;97694.16;29373;282;63004;-57
2023/03/28 01:05:33;;;;;;;0.60;0.60;;;;;;;0.94;74.09;97690.47;29373;212;63009;-57
2023/03/28 01:06:07;;;;;;;0.70;0.70;;;;;;;0.89;74.14;97688.44;29371;205;64009;-57
2023/03/28 01:06:47;;;;;;;0.60;0.60;;;;;;;0.87;75.00;97695.03;29373;227;63018;-63
2023/03/28 01:07:19;;;;;;;0.60;0.60;;;;;;;0.87;74.84;97695.03;29373;228;63004;-58
2023/03/28 01:07:57;;;;;;;0.60;0.60;;;;;;;0.85;74.39;97697.09;29373;264;63009;-57
2023/03/28 01:08:31;;;;;;;0.60;0.60;;;;;;;0.81;74.75;97690.50;29373;219;63005;-62
2023/03/28 01:09:06;;;;;;;0.60;0.60;;;;;;;0.80;74.57;97696.88;29372;213;63023;-57
2023/03/28 01:09:37;;;;;;;0.60;0.60;;;;;;;0.79;75.41;97697.91;29373;256;63005;-57
2023/03/28 01:10:09;;;;;;;0.60;0.60;;;;;;;0.74;75.10;97695.88;29373;204;63009;-57
2023/03/28 01:10:42;;;;;;;0.60;0.60;;;;;;;0.73;75.11;97696.09;29373;248;63012;-57
2023/03/28 01:11:15;;;;;;;0.60;0.60;;;;;;;0.70;75.45;97693.84;29371;218;64013;-57
2023/03/28 01:11:46;;;;;;;0.60;0.60;;;;;;;0.68;75.85;97706.59;29373;230;63007;-56
2023/03/28 01:12:19;;;;;;;0.60;0.60;;;;;;;0.66;75.64;97704.16;29373;203;63016;-62
2023/03/28 01:12:54;;;;;;;0.60;0.60;;;;;;;0.66;76.20;97702.28;29373;197;63018;-56
2023/03/28 01:13:30;;;;;;;0.60;0.60;;;;;;;0.68;76.10;97698.59;29373;250;63014;-57
2023/03/28 01:14:03;;;;;;;0.60;0.60;;;;;;;0.68;76.05;97701.28;29373;247;63004;-57
2023/03/28 01:14:38;;;;;;;0.60;0.60;;;;;;;0.65;76.04;97700.66;29373;229;63008;-57
2023/03/28 01:15:10;;;;;;;0.60;0.60;;;;;;;0.66;76.41;97696.94;29373;258;63005;-57
2023/03/28 01:15:43;;;;;;;0.60;0.60;;;;;;;0.67;76.04;97689.75;29373;221;63014;-57
2023/03/28 01:16:16;;;;;;;0.60;0.60;;;;;;;0.68;76.04;97693.25;29371;202;64009;-62
2023/03/28 01:16:48;;;;;;;0.68;0.68;;;;;;;0.67;76.01;97689.75;29373;213;63009;-64
2023/03/28 01:17:20;;;;;;;0.60;0.60;;;;;;;0.66;76.17;97694.28;29373;218;63005;-58
2023/03/28 01:17:53;;;;;;;0.60;0.60;;;;;;;0.68;75.82;97690.59;29373;225;63009;-57
2023/03/28 01:18:25;;;;;;;0.60;0.60;;;;;;;0.69;76.37;97686.88;29373;296;63005;-56
2023/03/28 01:19:00;;;;;;;0.60;0.60;;;;;;;0.68;76.31;97695.94;29373;236;63009;-57
2023/03/28 01:20:16;;;;;;;0.60;0.60;;;;;;;0.66;76.15;97694.28;29373;202;63004;-58
2023/03/28 01:21:33;;;;;;;0.60;0.60;;;;;;;0.66;76.76;97682.78;29373;222;63009;-56
2023/03/28 01:22:53;;;;;;;0.60;0.60;;;;;;;0.64;76.33;97688.34;29371;219;64008;-57
2023/03/28 01:24:05;;;;;;;0.60;0.60;;;;;;;0.61;76.80;97694.09;29373;241;63009;-56
2023/03/28 01:25:34;;;;;;;0.70;0.70;;;;;;;0.57;77.41;97700.06;29395;226;63005;-57
2023/03/28 01:26:37;;;;;;;0.68;0.68;;;;;;;0.45;79.05;97697.19;29395;253;63009;-66
2023/03/28 01:27:45;;;;;;;0.60;0.60;;;;;;;0.40;79.60;97693.50;29371;217;64009;-57
2023/03/28 01:28:46;;;;;;;0.60;0.60;;;;;;;0.30;79.71;97694.78;29373;204;63010;-57
2023/03/28 01:29:53;;;;;;;0.60;0.60;;;;;;;0.27;80.09;97691.69;29373;282;63009;-57
2023/03/28 01:31:22;;;;;;;0.65;0.65;;;;;;;0.25;80.08;97696.44;29373;263;63005;-57
2023/03/28 01:33:30;;;;;;;0.64;0.64;;;;;;;0.24;80.16;97692.94;88178;204;64004;-58
2023/03/28 01:34:37;;;;;;;0.60;0.60;;;;;;;0.26;79.99;97698.06;29394;197;64009;-58
2023/03/28 01:35:47;;;;;;;0.60;0.60;;;;;;;0.27;79.84;97702.38;29373;224;63005;-57
2023/03/28 01:37:04;;;;;;;0.70;0.70;;;;;;;0.25;79.90;97707.09;29373;197;63009;-57
2023/03/28 01:38:18;;;;;;;0.70;0.70;;;;;;;0.20;80.18;97701.56;29373;210;63009;-57
2023/03/28 01:39:15;;;;;;;0.70;0.70;;;;;;;0.18;80.37;97715.13;29373;208;63004;-57
2023/03/28 01:40:37;;;;;;;0.70;0.70;;;;;;;0.18;80.40;97711.62;29371;279;64013;-65
2023/03/28 01:41:49;;;;;;;0.70;0.70;;;;;;;0.15;80.79;97712.03;29355;204;125005;-65
2023/03/28 01:42:51;;;;;;;0.70;0.70;;;;;;;0.16;80.79;97719.00;29417;207;63009;-57
2023/03/28 01:43:59;;;;;;;0.68;0.68;;;;;;;0.15;80.90;97717.38;29417;227;63005;-67
2023/03/28 01:45:01;;;;;;;0.60;0.60;;;;;;;0.14;81.27;97716.56;29394;262;64009;-57
2023/03/28 01:46:14;;;;;;;0.60;0.60;;;;;;;0.20;81.27;97714.91;29395;263;63009;-58
2023/03/28 01:47:01;;;;;;;0.70;0.70;;;;;;;0.21;81.20;97711.22;29394;196;64008;-57
2023/03/28 01:47:49;;;;;;;0.70;0.70;;;;;;;0.20;81.20;97710.38;29373;251;63009;-57
2023/03/28 01:49:02;;;;;;;0.62;0.62;;;;;;;0.22;81.41;97720.88;29371;241;64009;-64
2023/03/28 01:50:07;;;;;;;0.70;0.70;;;;;;;0.18;81.16;97711.62;29395;240;63009;-58
2023/03/28 01:50:51;;;;;;;0.70;0.70;;;;;;;0.18;81.54;97717.78;29395;267;63009;-57
2023/03/28 01:51:57;;;;;;;0.60;0.60;;;;;;;0.16;81.43;97713.69;29373;246;63005;-62
2023/03/28 01:52:56;;;;;;;0.70;0.70;;;;;;;0.21;81.34;97722.72;29371;258;64013;-58
2023/03/28 01:53:40;;;;;;;0.70;0.70;;;;;;;0.23;81.48;97717.16;29373;252;63004;-57
2023/03/28 01:54:40;;;;;;;0.60;0.60;;;;;;;0.23;81.11;97707.31;29371;202;64013;-57
2023/03/28 01:55:29;;;;;;;0.60;0.60;;;;;;;0.23;81.33;97711.81;29373;214;63024;-56
2023/03/28 01:56:12;;;;;;;0.65;0.65;;;;;;;0.22;81.32;97719.00;29371;207;64009;-57
2023/03/28 01:57:10;;;;;;;0.60;0.60;;;;;;;0.22;81.29;97719.00;29373;221;63009;-64
2023/03/28 01:57:58;;;;;;;0.62;0.62;;;;;;;0.22;81.25;97723.53;29373;211;63012;-56
2023/03/28 01:59:05;;;;;;;0.70;0.70;;;;;;;0.26;81.41;97714.09;29371;197;64009;-64
2023/03/28 01:59:52;;;;;;;0.60;0.60;;;;;;;0.26;81.24;97711.41;29455;399;126009;-57
2023/03/28 02:01:21;;;;;;;0.60;0.60;;;;;;;0.27;80.99;97721.06;29395;216;63009;-57
2023/03/28 02:02:13;;;;;;;0.70;0.70;;;;;;;0.30;81.21;97715.31;29373;223;63009;-68
2023/03/28 02:03:13;;;;;;;0.60;0.60;;;;;;;0.28;81.04;97712.84;29395;226;63009;-58
2023/03/28 02:03:57;;;;;;;0.60;0.60;;;;;;;0.28;81.40;97712.03;29394;203;64009;-67
2023/03/28 02:04:32;;;;;;;0.60;0.60;;;;;;;0.27;81.29;97718.41;29373;246;63009;-56
2023/03/28 02:05:08;;;;;;;0.60;0.60;;;;;;;0.24;81.39;97716.13;29373;267;63005;-57
2023/03/28 02:05:43;;;;;;;0.60;0.60;;;;;;;0.24;81.73;97716.97;29373;245;63009;-57
2023/03/28 02:06:19;;;;;;;0.70;0.70;;;;;;;0.26;81.89;97706.06;29373;244;63004;-57
2023/03/28 02:06:53;;;;;;;0.60;0.60;;;;;;;0.27;81.54;97710.38;29373;213;63009;-57
2023/03/28 02:07:26;;;;;;;0.60;0.60;;;;;;;0.27;81.77;97716.53;29373;271;63004;-57
2023/03/28 02:08:00;;;;;;;0.60;0.60;;;;;;;0.26;81.71;97711.41;29371;285;64013;-56
2023/03/28 02:08:36;;;;;;;0.60;0.60;;;;;;;0.25;81.61;97717.78;29373;250;63004;-57
2023/03/28 02:09:10;;;;;;;0.60;0.60;;;;;;;0.24;81.80;97727.63;29373;224;63008;-58
2023/03/28 02:09:44;;;;;;;0.60;0.60;;;;;;;0.23;81.72;97725.16;29373;242;63005;-58
2023/03/28 02:10:20;;;;;;;0.60;0.60;;;;;;;0.22;81.68;97715.53;29373;211;63009;-57
2023/03/28 02:10:52;;;;;;;0.60;0.60;;;;;;;0.22;81.72;97724.34;29371;242;64009;-56
2023/03/28 02:11:27;;;;;;;0.60;0.60;;;;;;;0.21;81.90;97724.56;29371;198;64013;-57
2023/03/28 02:12:13;;;;;;;0.60;0.60;;;;;;;0.20;81.96;97714.91;29373;254;63005;-58
2023/03/28 02:12:50;;;;;;;0.60;0.60;;;;;;;0.23;82.06;97725.16;29373;300;63013;-56
2023/03/28 02:13:29;;;;;;;0.60;0.60;;;;;;;0.22;81.66;97718.19;29373;252;63005;-57
2023/03/28 02:14:08;;;;;;;0.62;0.62;;;;;;;0.20;81.55;97720.25;29373;206;63009;-57
2023/03/28 02:14:42;;;;;;;0.60;0.60;;;;;;;0.23;81.94;97730.50;29373;216;63004;-57
2023/03/28 02:15:17;;;;;;;0.60;0.60;;;;;;;0.23;81.96;97727.84;29373;219;63009;-67
2023/03/28 02:15:53;;;;;;;0.60;0.60;;;;;;;0.24;81.98;97729.47;29373;208;63004;-66
2023/03/28 02:16:26;;;;;;;0.60;0.60;;;;;;;0.24;81.80;97726.81;29371;284;64013;-58
2023/03/28 02:17:03;;;;;;;0.60;0.60;;;;;;;0.31;81.65;97723.13;29373;230;63005;-60
2023/03/28 02:17:42;;;;;;;0.60;0.60;;;;;;;0.42;81.00;97721.63;29373;224;63009;-56
2023/03/28 02:18:22;;;;;;;0.60;0.60;;;;;;;0.46;80.65;97722.87;29373;199;63005;-57
2023/03/28 02:18:57;;;;;;;0.60;0.60;;;;;;;0.46;80.24;97728.22;29373;223;63009;-63
2023/03/28 02:19:29;;;;;;;0.60;0.60;;;;;;;0.46;80.46;97725.53;29373;197;63005;-55
2023/03/28 02:20:13;;;;;;;0.60;0.60;;;;;;;0.47;80.39;97727.19;29373;221;63009;-57
2023/03/28 02:20:49;;;;;;;0.60;0.60;;;;;;;0.45;80.57;97723.91;29373;236;63005;-57
2023/03/28 02:21:27;;;;;;;0.60;0.60;;;;;;;0.42;80.31;97729.66;29373;204;63009;-56
2023/03/28 02:22:34;;;;;;;0.60;0.60;;;;;;;0.39;80.49;97718.56;29371;205;64009;-67
2023/03/28 02:23:16;;;;;;;0.60;0.60;;;;;;;0.33;81.09;97720.25;29373;228;63012;-64
2023/03/28 02:23:53;;;;;;;0.60;0.60;;;;;;;0.33;80.95;97721.06;29373;223;63004;-58
2023/03/28 02:24:24;;;;;;;0.60;0.60;;;;;;;0.33;81.13;97728.25;29371;235;64014;-57
2023/03/28 02:24:56;;;;;;;0.60;0.60;;;;;;;0.32;80.93;97723.94;29373;223;63005;-57
2023/03/28 02:25:30;;;;;;;0.60;0.60;;;;;;;0.37;80.87;97725.97;29373;209;63009;-57
2023/03/28 02:26:02;;;;;;;0.60;0.60;;;;;;;0.41;80.93;97722.66;29373;245;63005;-62
2023/03/28 02:26:34;;;;;;;0.60;0.60;;;;;;;0.46;80.67;97720.19;29373;258;63016;-58
2023/03/28 02:27:07;;;;;;;0.60;0.60;;;;;;;0.46;80.59;97722.03;29373;222;63015;-57
2023/03/28 02:27:42;;;;;;;0.60;0.60;;;;;;;0.52;79.98;97719.38;29373;251;63009;-56
2023/03/28 02:28:15;;;;;;;0.60;0.60;;;;;;;0.51;79.87;97717.72;29373;214;63005;-66
2023/03/28 02:28:51;;;;;;;0.60;0.60;;;;;;;0.48;80.01;97723.47;29373;260;63009;-64
2023/03/28 02:29:22;;;;;;;0.60;0.60;;;;;;;0.45;80.10;97723.91;29371;272;64009;-64
2023/03/28 02:29:54;;;;;;;0.60;0.60;;;;;;;0.42;80.19;97718.16;29373;263;63009;-63
2023/03/28 02:30:27;;;;;;;0.60;0.60;;;;;;;0.44;80.36;97724.94;29373;231;63004;-63
2023/03/28 02:31:00;;;;;;;0.60;0.60;;;;;;;0.44;80.13;97722.25;29373;220;63009;-57
2023/03/28 02:31:32;;;;;;;0.60;0.60;;;;;;;0.43;80.35;97723.28;29373;279;63007;-57
2023/03/28 02:32:04;;;;;;;0.60;0.60;;;;;;;0.39;80.21;97719.38;29373;216;63009;-65
2023/03/28 02:32:36;;;;;;;0.70;0.70;;;;;;;0.37;80.46;97726.78;29373;261;63005;-57
2023/03/28 02:33:38;;;;;;;0.60;0.60;;;;;;;0.32;80.40;97723.94;29373;256;63009;-65
2023/03/28 02:34:10;;;;;;;0.60;0.60;;;;;;;0.28;80.67;97722.72;29395;230;63005;-63
2023/03/28 02:34:44;;;;;;;0.60;0.60;;;;;;;0.26;80.89;97722.91;29394;252;64013;-56
2023/03/28 02:35:19;;;;;;;0.65;0.65;;;;;;;0.24;80.75;97727.63;29373;234;63005;-57
2023/03/28 02:36:33;;;;;;;0.60;0.60;;;;;;;0.21;80.87;97727.22;29373;198;63009;-57
2023/03/28 02:38:02;;;;;;;0.60;0.60;;;;;;;0.20;81.04;97725.59;29373;218;63004;-65
2023/03/28 02:39:01;;;;;;;0.60;0.60;;;;;;;0.19;81.25;97723.94;29373;212;63009;-66
2023/03/28 02:39:45;;;;;;;0.60;0.60;;;;;;;0.15;81.36;97723.53;29373;206;63009;-57
2023/03/28 02:40:43;;;;;;;0.68;0.68;;;;;;;0.12;81.29;97723.94;29371;229;64009;-56
2023/03/28 02:41:52;;;;;;;0.70;0.70;;;;;;;0.11;81.44;97719.63;29371;199;64009;-57
2023/03/28 02:42:58;;;;;;;0.70;0.70;;;;;;;0.11;81.77;97729.47;29373;278;63005;-57
2023/03/28 02:43:54;;;;;;;0.70;0.70;;;;;;;0.09;82.03;97724.34;29373;215;63021;-57
2023/03/28 02:45:06;;;;;;;0.60;0.60;;;;;;;0.09;82.07;97712.84;29371;196;64013;-57
2023/03/28 02:46:11;;;;;;;0.60;0.60;;;;;;;0.06;81.83;97715.94;29393;280;64013;-57
2023/03/28 02:47:18;;;;;;;0.70;0.70;;;;;;;0.03;82.16;97716.34;29395;203;63011;-56
2023/03/28 02:48:15;;;;;;;0.60;0.60;;;;;;;-0.01;82.46;97719.44;29371;208;64014;-57
2023/03/28 02:49:26;;;;;;;0.60;0.60;;;;;;;-0.07;82.74;97720.25;29373;197;63005;-56
2023/03/28 02:50:58;;;;;;;0.60;0.60;;;;;;;-0.13;82.89;97715.75;29372;204;63009;-66
2023/03/28 02:51:51;;;;;;;0.70;0.70;;;;;;;-0.17;83.15;97714.50;29373;234;63004;-57
2023/03/28 02:53:04;;;;;;;0.60;0.60;;;;;;;-0.20;83.58;97712.25;29373;267;63009;-56
2023/03/28 02:53:58;;;;;;;0.60;0.60;;;;;;;-0.21;83.63;97713.28;29393;312;64009;-58
2023/03/28 02:55:00;;;;;;;0.60;0.60;;;;;;;-0.22;83.64;97716.13;29395;217;63008;-57
2023/03/28 02:56:06;;;;;;;0.65;0.65;;;;;;;-0.25;83.91;97717.38;29373;229;63005;-57
2023/03/28 02:57:05;;;;;;;0.62;0.62;;;;;;;-0.27;83.71;97721.25;29373;243;63005;-56
2023/03/28 02:57:54;;;;;;;0.60;0.60;;;;;;;-0.32;83.83;97716.53;29373;202;63024;-57
2023/03/28 02:58:33;;;;;;;0.60;0.60;;;;;;;-0.33;84.23;97720.22;29371;259;64009;-56
2023/03/28 02:59:16;;;;;;;0.60;0.60;;;;;;;-0.35;83.98;97720.44;29373;249;63009;-56
2023/03/28 02:59:55;;;;;;;0.60;0.60;;;;;;;-0.35;83.88;97716.97;29373;213;63004;-56
2023/03/28 03:00:28;;;;;;;0.65;0.65;;;;;;;-0.34;83.94;97724.72;29373;227;63009;-56
2023/03/28 03:01:05;;;;;;;0.60;0.60;;;;;;;-0.35;84.23;97723.09;29371;218;64009;-57
2023/03/28 03:01:39;;;;;;;0.60;0.60;;;;;;;-0.35;84.44;97725.75;29373;212;63008;-57
2023/03/28 03:02:20;;;;;;;0.70;0.70;;;;;;;-0.38;84.70;97725.38;29371;208;64009;-56
2023/03/28 03:02:51;;;;;;;0.60;0.60;;;;;;;-0.40;84.65;97719.41;29395;264;63009;-57
2023/03/28 03:03:24;;;;;;;0.60;0.60;;;;;;;-0.42;84.70;97724.94;29394;280;64009;-57
2023/03/28 03:03:56;;;;;;;0.60;0.60;;;;;;;-0.42;84.93;97719.63;29373;205;63009;-56
2023/03/28 03:04:28;;;;;;;0.70;0.70;;;;;;;-0.42;84.91;97716.13;29371;204;64009;-67
2023/03/28 03:05:00;;;;;;;0.60;0.60;;;;;;;-0.44;84.95;97723.50;29373;196;63009;-56
2023/03/28 03:05:32;;;;;;;0.60;0.60;;;;;;;-0.43;84.75;97719.81;29371;221;64009;-57
2023/03/28 03:06:05;;;;;;;0.60;0.60;;;;;;;-0.44;84.76;97726.19;29373;198;63012;-56
2023/03/28 03:06:36;;;;;;;0.70;0.70;;;;;;;-0.46;84.88;97723.72;29373;196;63004;-57
2023/03/28 03:07:09;;;;;;;0.60;0.60;;;;;;;-0.47;84.80;97723.91;29371;210;64013;-57
2023/03/28 03:07:41;;;;;;;0.70;0.70;;;;;;;-0.49;84.82;97723.28;29373;259;63004;-57
2023/03/28 03:08:16;;;;;;;0.70;0.70;;;;;;;-0.49;85.19;97720.63;29373;296;63008;-57
2023/03/28 03:08:47;;;;;;;0.70;0.70;;;;;;;-0.51;84.96;97720.00;29373;265;63004;-57
2023/03/28 03:09:18;;;;;;;0.70;0.70;;;;;;;-0.53;85.06;97719.38;29373;212;63008;-57
2023/03/28 03:09:52;;;;;;;0.60;0.60;;;;;;;-0.54;85.13;97723.91;29371;211;64009;-57
2023/03/28 03:10:24;;;;;;;0.60;0.60;;;;;;;-0.55;85.06;97727.59;29373;234;63017;-56
2023/03/28 03:10:55;;;;;;;0.60;0.60;;;;;;;-0.56;85.23;97725.94;29373;207;63005;-56
2023/03/28 03:11:27;;;;;;;0.60;0.60;;;;;;;-0.58;85.29;97725.31;29373;262;63009;-56
2023/03/28 03:11:59;;;;;;;0.60;0.60;;;;;;;-0.59;85.38;97722.84;29373;220;63005;-57
2023/03/28 03:12:30;;;;;;;0.70;0.70;;;;;;;-0.61;85.80;97722.22;29373;213;63009;-67
2023/03/28 03:13:01;;;;;;;0.60;0.60;;;;;;;-0.63;85.72;97721.59;29373;212;63004;-57
2023/03/28 03:13:33;;;;;;;0.60;0.60;;;;;;;-0.64;86.04;97722.63;29373;311;63009;-66
2023/03/28 03:14:04;;;;;;;0.60;0.60;;;;;;;-0.65;86.33;97721.00;29373;205;63009;-58
2023/03/28 03:14:37;;;;;;;0.70;0.70;;;;;;;-0.68;86.41;97724.88;29371;291;64013;-67
2023/03/28 03:15:10;;;;;;;0.60;0.60;;;;;;;-0.68;86.56;97723.03;29373;204;63004;-56
2023/03/28 03:15:42;;;;;;;0.60;0.60;;;;;;;-0.68;86.49;97717.69;29373;212;63008;-56
2023/03/28 03:16:13;;;;;;;0.60;0.60;;;;;;;-0.68;86.96;97717.69;29373;229;63004;-67
2023/03/28 03:16:44;;;;;;;0.60;0.60;;;;;;;-0.69;86.61;97724.06;29373;197;63009;-57
2023/03/28 03:17:17;;;;;;;0.68;0.68;;;;;;;-0.69;86.87;97720.56;29373;210;63005;-66
2023/03/28 03:17:49;;;;;;;0.68;0.68;;;;;;;-0.70;86.63;97719.78;29373;232;63009;-68
2023/03/28 03:18:21;;;;;;;0.70;0.70;;;;;;;-0.70;86.49;97719.78;29373;202;63017;-68
2023/03/28 03:18:56;;;;;;;0.60;0.60;;;;;;;-0.70;86.63;97725.09;29373;233;63009;-67
2023/03/28 03:19:28;;;;;;;0.70;0.70;;;;;;;-0.70;86.68;97721.63;29373;199;63005;-66
2023/03/28 03:20:05;;;;;;;0.60;0.60;;;;;;;-0.71;86.64;97723.47;29371;214;64013;-67